Tropical Cyclones
[Index]
Main Index Home Page Stock Weather Photos Extreme Storms Discussion Storm News and Storm Chasing Reports Tropical Cyclones / Hurricanes / Typhoons Weather Data and Links Wild Fires / Bushfires Weather Observation Techniques Weather Picture Catalogue Tornado Pictures and Reports Stock Video Footage and DVDs for sale
Season 2009-2010 Tropical Cyclone PAUL Track Map
Season 2009-2010 Summaries: [BoM-AU] [JTWC-AU] [JTWC-SIO] [JTWC-SPAC] [JTWC-SH]
<<- Previous TC | BoM 2009-2010 Season | Next TC ->>

click for intensity scale information  Lat/long Grid: Show Hide

 Date Labels: Show Hide

Bureau of Meteorology Tropical Cyclone Data

Name: PAUL
Number: 935 / 200910_11

24 Mar 2010 12:00 UTC to 02 Apr 2010 12:00 UTC

    date/time    lat    long    hPa   cat  kts
2010-03-24 12    8.5   138.0   1006         15          
2010-03-24 18    8.8   137.1   1004         15          
2010-03-25 00    9.1   136.5   1007         20          
2010-03-25 06    9.2   136.0   1004         20          
2010-03-25 12    9.3   135.6   1006         20          
2010-03-25 18    9.4   135.3   1004         20          
2010-03-26 00    9.4   135.1   1005         20          
2010-03-26 06    9.9   135.2   1002         25          
2010-03-26 12   10.3   135.5   1004         25          
2010-03-26 18   10.5   135.9   1003         25          
2010-03-27 00   10.7   136.4   1004         25          
2010-03-27 01   10.8   136.5                            
2010-03-27 03   11.0   136.4                            
2010-03-27 06   11.3   136.5    999         30          
2010-03-27 09   11.6   136.8                            
2010-03-27 12   12.3   136.9   1001         30          
2010-03-27 15   12.6   136.6                            
2010-03-27 18   12.7   136.5    996         35          
2010-03-27 21   12.9   136.6                            
2010-03-27 23   13.0   136.7                            
2010-03-28 00   13.1   136.5    995    1    40          
2010-03-28 01   12.9   136.4                            
2010-03-28 03   12.9   136.5                            
2010-03-28 04   13.0   136.7                            
2010-03-28 05   13.1   136.6                            
2010-03-28 06   13.1   136.6    990    1    40          
2010-03-28 07   13.0   136.6                            
2010-03-28 09   13.0   136.5                            
2010-03-28 10   12.9   136.5                            
2010-03-28 12   12.9   136.5    986    1    50          
2010-03-28 13   12.9   136.5                            
2010-03-28 15   12.9   136.6                            
2010-03-28 18   13.1   136.6    984    2    50          
2010-03-28 21   13.2   136.6                            
2010-03-29 00   13.2   136.4    979    2    60          
2010-03-29 03   13.2   136.4    975    2    65          
2010-03-29 06   13.3   136.3    972    2    65          
2010-03-29 09   13.4   136.1    973    2    65          
2010-03-29 10   13.4   136.1                            
2010-03-29 12   13.3   135.9    971    2    70          
2010-03-29 15   13.2   135.7    983    2    55          
2010-03-29 18   13.1   135.7    988    1    45          
2010-03-29 21   13.1   135.5    995    1    35          
2010-03-30 00   13.2   135.4    995    1    30          
2010-03-30 03   13.2   135.2    996         30          
2010-03-30 06   13.2   135.0    995    1    30          
2010-03-30 12   13.3   135.0    995    1    30          
2010-03-30 18   13.5   135.0    996         30          
2010-03-31 00   13.9   135.3    998         30          
2010-03-31 06   14.1   135.8    996         30          
2010-03-31 12   14.1   136.1    998         30          
2010-03-31 18   14.2   136.5    998         30          
2010-04-01 00   14.7   136.8    998         30          
2010-04-01 06   15.3   137.2    999         30          
2010-04-01 12   16.1   137.9    998         30          
2010-04-01 18   16.3   138.3    999         30          
2010-04-02 00   16.5   138.2   1000         25          
2010-04-02 06   16.7   137.8   1001         25          
2010-04-02 12   16.8   137.5   1003         20          
Winds are 10-min average.

Tropical cyclone tracks developed by Michael Bath using data from the Bureau of Meteorology and Google Maps.


[Australian Severe Weather index] [Copyright Notice] [Email Contacts] [Search This Site] [Privacy Policy]
Document: tropical_cyclone_paul.htm Updated: 29 June 2017